createdAt,value
2023-02-03T00:04:52.400Z,99115.02
2023-02-03T00:14:59.614Z,99120.33
2023-02-03T00:25:08.098Z,99121.77
2023-02-03T00:35:15.179Z,99135.39
2023-02-03T00:45:22.304Z,99147.35
2023-02-03T00:55:29.650Z,99142.59
2023-02-03T01:05:36.549Z,99126.35
2023-02-03T01:15:46.990Z,99120.70
2023-02-03T01:25:54.076Z,99125.05
2023-02-03T01:36:03.094Z,99112.73
2023-02-03T01:46:08.555Z,99112.06
2023-02-03T01:56:16.331Z,99108.16
2023-02-03T02:06:23.690Z,99098.80
2023-02-03T02:16:29.714Z,99091.01
2023-02-03T02:27:07.181Z,99091.04
2023-02-03T02:37:12.530Z,99065.77
2023-02-03T02:47:17.983Z,99034.38
2023-02-03T02:57:28.262Z,99031.93
2023-02-03T03:07:35.156Z,99053.84
2023-02-03T03:17:49.269Z,99076.67
2023-02-03T03:28:00.583Z,99052.95
2023-02-03T03:38:10.024Z,99035.57
2023-02-03T03:48:17.943Z,99013.30
2023-02-03T03:58:29.759Z,99005.39
2023-02-03T04:08:36.995Z,99009.27
2023-02-03T04:18:44.320Z,99007.37
2023-02-03T04:28:52.084Z,98991.36
2023-02-03T04:38:59.701Z,98983.38
2023-02-03T04:49:07.077Z,98967.27
2023-02-03T04:59:14.210Z,98944.52
2023-02-03T05:09:20.319Z,98924.41
2023-02-03T05:19:27.653Z,98914.31
2023-02-03T05:29:35.055Z,98908.06
2023-02-03T05:39:42.335Z,98881.42
2023-02-03T05:49:49.603Z,98860.84
2023-02-03T05:59:57.179Z,98846.73
2023-02-03T06:10:04.309Z,98837.73
2023-02-03T06:20:14.276Z,98827.60
2023-02-03T06:30:24.039Z,98827.48
2023-02-03T06:40:31.450Z,98815.59
2023-02-03T06:50:38.630Z,98785.59
2023-02-03T07:00:45.824Z,98768.36
2023-02-03T07:10:54.951Z,98760.59
2023-02-03T07:21:05.500Z,98735.77
2023-02-03T07:31:12.792Z,98712.86
2023-02-03T07:41:19.778Z,98684.77
2023-02-03T07:51:25.599Z,98674.69
2023-02-03T08:01:34.533Z,98652.39
2023-02-03T08:11:41.971Z,98622.89
2023-02-03T08:21:49.088Z,98616.66
2023-02-03T08:31:58.927Z,98609.88
2023-02-03T08:42:05.561Z,98590.50
2023-02-03T08:52:16.856Z,98567.07
2023-02-03T09:02:25.314Z,98555.57
2023-02-03T09:12:33.226Z,98542.44
2023-02-03T09:22:41.399Z,98528.11
2023-02-03T09:32:48.544Z,98499.98
2023-02-03T09:43:00.254Z,98477.36
2023-02-03T09:53:06.083Z,98427.81
2023-02-03T10:03:18.122Z,98387.49
2023-02-03T10:13:32.222Z,98353.52
2023-02-03T10:23:42.522Z,98320.75
2023-02-03T10:33:51.202Z,98270.88
2023-02-03T10:43:59.736Z,98225.63
2023-02-03T10:54:27.317Z,98195.81
2023-02-03T11:04:36.213Z,98156.52
2023-02-03T11:14:45.980Z,98114.09
2023-02-03T11:24:52.110Z,98071.33
2023-02-03T11:34:59.139Z,98035.77
2023-02-03T11:45:14.775Z,98003.46
2023-02-03T11:55:32.354Z,97978.42
2023-02-03T12:05:43.989Z,97947.41
2023-02-03T12:15:54.928Z,97913.33
2023-02-03T12:26:03.813Z,97883.20
2023-02-03T12:36:09.141Z,97854.21
2023-02-03T12:46:22.370Z,97822.38
2023-02-03T12:56:27.204Z,97783.77
2023-02-03T13:06:36.553Z,97759.07
2023-02-03T13:16:45.253Z,97725.35
2023-02-03T13:27:10.607Z,97683.99
2023-02-03T13:47:51.428Z,97612.55
2023-02-03T13:57:58.359Z,97590.77
2023-02-03T14:08:28.897Z,97570.72
2023-02-03T14:18:47.150Z,97558.71
2023-02-03T14:28:54.060Z,97560.13
2023-02-03T14:39:04.803Z,97558.41
2023-02-03T14:49:20.941Z,97539.20
2023-02-03T14:59:30.581Z,97526.34
2023-02-03T15:09:39.456Z,97506.86
2023-02-03T15:19:46.444Z,97515.05
2023-02-03T15:29:54.525Z,97515.25
2023-02-03T15:40:01.038Z,97522.85
2023-02-03T15:50:25.613Z,97548.98
2023-02-03T16:00:34.501Z,97554.23
2023-02-03T16:10:41.923Z,97559.53
2023-02-03T16:20:52.846Z,97565.77
2023-02-03T16:31:21.153Z,97582.77
2023-02-03T16:41:46.001Z,97596.07
2023-02-03T16:51:53.163Z,97601.99
2023-02-03T17:02:00.518Z,97615.02
2023-02-03T17:12:07.183Z,97621.24
2023-02-03T17:22:14.542Z,97627.87
2023-02-03T17:32:21.521Z,97648.55
2023-02-03T18:03:11.140Z,97671.38
2023-02-03T18:13:18.513Z,97680.94
2023-02-03T18:23:24.698Z,97685.55
2023-02-03T18:33:32.074Z,97690.73
2023-02-03T18:43:39.339Z,97694.48
2023-02-03T18:53:46.958Z,97696.78
2023-02-03T19:03:55.223Z,97709.50
2023-02-03T19:14:02.415Z,97718.04
2023-02-03T19:24:10.199Z,97727.63
2023-02-03T19:34:15.875Z,97731.61
2023-02-03T19:44:23.365Z,97736.11
2023-02-03T19:54:31.125Z,97738.70
2023-02-03T20:04:38.229Z,97738.84
2023-02-03T20:14:46.278Z,97751.77
2023-02-03T20:24:53.033Z,97749.58
2023-02-03T20:34:59.642Z,97750.83
2023-02-03T20:45:14.453Z,97743.45
2023-02-03T20:55:19.285Z,97737.18
2023-02-03T21:05:26.285Z,97738.36
2023-02-03T21:15:34.042Z,97740.31
2023-02-03T21:25:42.176Z,97741.95
2023-02-03T21:35:49.658Z,97735.54
2023-02-03T21:45:56.964Z,97729.64
2023-02-03T21:56:04.937Z,97735.02
2023-02-03T22:06:25.128Z,97737.19
2023-02-03T22:16:32.270Z,97735.54
2023-02-03T22:26:39.468Z,97722.14
2023-02-03T22:36:46.616Z,97720.38
2023-02-03T22:46:53.656Z,97718.34
2023-02-03T22:57:01.793Z,97710.30
2023-02-03T23:07:08.815Z,97696.21
2023-02-03T23:17:14.549Z,97688.32
2023-02-03T23:27:21.736Z,97675.16
2023-02-03T23:37:28.802Z,97660.98
2023-02-03T23:47:36.292Z,97643.13
